sensor_id;sensor_type;location;lat;lon;timestamp;pressure;altitude;pressure_sealevel;temperature;humidity
77537;BME280;67783;51.656;16.106;2023-02-12T00:02:23;103279.45;;;9.69;70.14
77537;BME280;67783;51.656;16.106;2023-02-12T00:05:25;103277.72;;;9.68;70.33
77537;BME280;67783;51.656;16.106;2023-02-12T00:08:36;103282.27;;;9.65;71.15
77537;BME280;67783;51.656;16.106;2023-02-12T00:11:38;103276.23;;;9.57;70.12
77537;BME280;67783;51.656;16.106;2023-02-12T00:14:41;103306.18;;;9.72;70.37
77537;BME280;67783;51.656;16.106;2023-02-12T00:17:43;103285.09;;;9.60;70.02
77537;BME280;67783;51.656;16.106;2023-02-12T00:20:44;103312.43;;;9.73;70.19
77537;BME280;67783;51.656;16.106;2023-02-12T00:23:56;103310.59;;;9.73;70.58
77537;BME280;67783;51.656;16.106;2023-02-12T00:26:58;103315.04;;;9.74;69.98
77537;BME280;67783;51.656;16.106;2023-02-12T00:30:00;103319.52;;;9.74;70.24
77537;BME280;67783;51.656;16.106;2023-02-12T00:33:02;103326.63;;;9.75;69.91
77537;BME280;67783;51.656;16.106;2023-02-12T00:36:05;103329.34;;;9.73;70.06
77537;BME280;67783;51.656;16.106;2023-02-12T00:39:17;103336.56;;;9.71;70.61
77537;BME280;67783;51.656;16.106;2023-02-12T00:42:18;103325.82;;;9.73;69.87
77537;BME280;67783;51.656;16.106;2023-02-12T00:45:20;103335.68;;;9.71;70.19
77537;BME280;67783;51.656;16.106;2023-02-12T00:48:22;103325.82;;;9.73;69.85
77537;BME280;67783;51.656;16.106;2023-02-12T00:51:24;103330.32;;;9.71;70.05
77537;BME280;67783;51.656;16.106;2023-02-12T00:54:27;103334.77;;;9.72;69.87
77537;BME280;67783;51.656;16.106;2023-02-12T00:57:28;103339.26;;;9.70;70.00
77537;BME280;67783;51.656;16.106;2023-02-12T01:00:34;103344.71;;;9.67;70.82
77537;BME280;67783;51.656;16.106;2023-02-12T01:03:35;103348.28;;;9.67;69.95
77537;BME280;67783;51.656;16.106;2023-02-12T01:06:38;103344.71;;;9.67;70.24
77537;BME280;67783;51.656;16.106;2023-02-12T01:09:41;103345.63;;;9.66;69.93
77537;BME280;67783;51.656;16.106;2023-02-12T01:12:42;103349.28;;;9.63;70.16
77537;BME280;67783;51.656;16.106;2023-02-12T01:16:04;103351.08;;;9.63;70.97
77537;BME280;67783;51.656;16.106;2023-02-12T01:19:10;103352.84;;;9.64;69.96
77537;BME280;67783;51.656;16.106;2023-02-12T01:22:12;103355.52;;;9.64;70.10
77537;BME280;67783;51.656;16.106;2023-02-12T01:25:21;103360.03;;;9.62;70.88
77537;BME280;67783;51.656;16.106;2023-02-12T01:28:23;103360.79;;;9.67;69.97
77537;BME280;67783;51.656;16.106;2023-02-12T01:31:27;103361.77;;;9.64;70.25
77537;BME280;67783;51.656;16.106;2023-02-12T01:34:29;103373.33;;;9.65;69.90
77537;BME280;67783;51.656;16.106;2023-02-12T01:37:35;103375.18;;;9.63;70.13
77537;BME280;67783;51.656;16.106;2023-02-12T01:40:41;103378.84;;;9.60;70.97
77537;BME280;67783;51.656;16.106;2023-02-12T01:43:44;103376.09;;;9.62;70.09
77537;BME280;67783;51.656;16.106;2023-02-12T01:46:48;103376.98;;;9.62;70.40
77537;BME280;67783;51.656;16.106;2023-02-12T01:49:51;103382.30;;;9.64;70.00
77537;BME280;67783;51.656;16.106;2023-02-12T01:52:57;103386.80;;;9.62;70.18
77537;BME280;67783;51.656;16.106;2023-02-12T01:56:03;103388.66;;;9.60;71.08
77537;BME280;67783;51.656;16.106;2023-02-12T01:59:05;103404.67;;;9.61;70.13
77537;BME280;67783;51.656;16.106;2023-02-12T02:02:08;103399.37;;;9.60;70.51
77537;BME280;67783;51.656;16.106;2023-02-12T02:05:13;103397.59;;;9.59;70.15
77537;BME280;67783;51.656;16.106;2023-02-12T02:08:16;103400.37;;;9.56;70.31
77537;BME280;67783;51.656;16.106;2023-02-12T02:11:23;103405.79;;;9.53;71.24
77537;BME280;67783;51.656;16.106;2023-02-12T02:14:38;103405.88;;;9.50;70.18
77537;BME280;67783;51.656;16.106;2023-02-12T02:40:31;103438.52;;;9.28;71.05
77537;BME280;67783;51.656;16.106;2023-02-12T02:43:41;103429.58;;;9.30;70.53
77537;BME280;67783;51.656;16.106;2023-02-12T02:46:47;103421.57;;;9.28;70.66
77537;BME280;67783;51.656;16.106;2023-02-12T02:50:01;103428.75;;;9.28;71.71
77537;BME280;67783;51.656;16.106;2023-02-12T02:53:12;103433.97;;;9.32;70.55
77537;BME280;67783;51.656;16.106;2023-02-12T02:56:19;103439.38;;;9.31;70.69
77537;BME280;67783;51.656;16.106;2023-02-12T02:59:28;103447.41;;;9.31;71.56
77537;BME280;67783;51.656;16.106;2023-02-12T03:02:37;103448.22;;;9.34;70.47
77537;BME280;67783;51.656;16.106;2023-02-12T03:05:44;103449.01;;;9.38;70.53
77537;BME280;67783;51.656;16.106;2023-02-12T03:08:52;103454.37;;;9.38;71.22
77537;BME280;67783;51.656;16.106;2023-02-12T03:11:58;103462.32;;;9.41;70.33
77537;BME280;67783;51.656;16.106;2023-02-12T03:15:09;103459.72;;;9.38;70.47
77537;BME280;67783;51.656;16.106;2023-02-12T03:21:40;103467.73;;;9.39;70.31
77537;BME280;67783;51.656;16.106;2023-02-12T03:24:54;103474.07;;;9.35;70.48
77537;BME280;67783;51.656;16.106;2023-02-12T03:28:09;103482.12;;;9.34;70.66
77537;BME280;67783;51.656;16.106;2023-02-12T03:31:30;103483.90;;;9.35;71.20
77537;BME280;67783;51.656;16.106;2023-02-12T03:37:57;103492.81;;;9.35;70.35
77537;BME280;67783;51.656;16.106;2023-02-12T03:47:45;103502.64;;;9.35;70.25
77537;BME280;67783;51.656;16.106;2023-02-12T03:54:04;103504.45;;;9.33;70.66
77537;BME280;67783;51.656;16.106;2023-02-12T03:57:11;103513.34;;;9.35;70.28
77537;BME280;67783;51.656;16.106;2023-02-12T04:00:18;103516.93;;;9.34;70.43
77537;BME280;67783;51.656;16.106;2023-02-12T04:03:20;103525.87;;;9.33;71.28
77537;BME280;67783;51.656;16.106;2023-02-12T04:06:25;103520.47;;;9.36;70.33
77537;BME280;67783;51.656;16.106;2023-02-12T04:09:28;103527.63;;;9.35;70.54
77537;BME280;67783;51.656;16.106;2023-02-12T04:19:00;103533.95;;;9.31;70.74
77537;BME280;67783;51.656;16.106;2023-02-12T04:22:14;103531.23;;;9.33;70.39
77537;BME280;67783;51.656;16.106;2023-02-12T04:28:42;103530.40;;;9.31;70.80
77537;BME280;67783;51.656;16.106;2023-02-12T04:35:19;103536.57;;;9.33;70.40
77537;BME280;67783;51.656;16.106;2023-02-12T04:38:30;103536.57;;;9.33;70.51
77537;BME280;67783;51.656;16.106;2023-02-12T04:41:35;103543.77;;;9.31;70.92
77537;BME280;67783;51.656;16.106;2023-02-12T04:44:42;103555.30;;;9.34;70.42
77537;BME280;67783;51.656;16.106;2023-02-12T04:47:44;103537.52;;;9.32;70.62
77537;BME280;67783;51.656;16.106;2023-02-12T04:50:54;103550.05;;;9.30;71.39
77537;BME280;67783;51.656;16.106;2023-02-12T04:53:56;103550.85;;;9.33;70.45
77537;BME280;67783;51.656;16.106;2023-02-12T04:56:58;103547.28;;;9.33;70.75
77537;BME280;67783;51.656;16.106;2023-02-12T05:00:00;103559.74;;;9.35;70.41
77537;BME280;67783;51.656;16.106;2023-02-12T05:03:02;103557.97;;;9.34;70.57
77537;BME280;67783;51.656;16.106;2023-02-12T05:06:14;103559.75;;;9.34;71.27
77537;BME280;67783;51.656;16.106;2023-02-12T05:09:19;103558.77;;;9.38;70.37
77537;BME280;67783;51.656;16.106;2023-02-12T05:12:21;103560.62;;;9.36;70.53
77537;BME280;67783;51.656;16.106;2023-02-12T05:15:22;103565.04;;;9.37;70.24
77537;BME280;67783;51.656;16.106;2023-02-12T05:18:24;103565.10;;;9.35;70.33
77537;BME280;67783;51.656;16.106;2023-02-12T05:21:36;103567.81;;;9.32;70.98
77537;BME280;67783;51.656;16.106;2023-02-12T05:24:38;103568.70;;;9.33;70.25
77537;BME280;67783;51.656;16.106;2023-02-12T05:27:41;103573.23;;;9.31;70.44
77537;BME280;67783;51.656;16.106;2023-02-12T05:30:43;103574.11;;;9.31;70.19
77537;BME280;67783;51.656;16.106;2023-02-12T05:33:46;103589.30;;;9.29;70.38
77537;BME280;67783;51.656;16.106;2023-02-12T05:36:56;103584.91;;;9.26;71.00
77537;BME280;67783;51.656;16.106;2023-02-12T05:39:58;103591.10;;;9.28;70.24
77537;BME280;67783;51.656;16.106;2023-02-12T05:42:59;103593.84;;;9.25;70.51
77537;BME280;67783;51.656;16.106;2023-02-12T05:46:03;103589.41;;;9.24;70.23
77537;BME280;67783;51.656;16.106;2023-02-12T05:49:06;103596.55;;;9.24;70.42
77537;BME280;67783;51.656;16.106;2023-02-12T05:52:17;103602.84;;;9.23;71.03
77537;BME280;67783;51.656;16.106;2023-02-12T05:55:18;103614.41;;;9.23;70.30
77537;BME280;67783;51.656;16.106;2023-02-12T05:58:20;103629.63;;;9.21;70.67
77537;BME280;67783;51.656;16.106;2023-02-12T06:01:26;103636.74;;;9.22;70.34
77537;BME280;67783;51.656;16.106;2023-02-12T06:04:29;103635.81;;;9.23;70.45
77537;BME280;67783;51.656;16.106;2023-02-12T06:07:37;103643.84;;;9.23;71.15
77537;BME280;67783;51.656;16.106;2023-02-12T06:10:39;103649.16;;;9.26;70.35
77537;BME280;67783;51.656;16.106;2023-02-12T06:13:41;103653.63;;;9.26;70.66
77537;BME280;67783;51.656;16.106;2023-02-12T06:16:48;103654.45;;;9.28;70.28
77537;BME280;67783;51.656;16.106;2023-02-12T06:19:50;103650.04;;;9.27;70.39
77537;BME280;67783;51.656;16.106;2023-02-12T06:22:58;103654.52;;;9.26;70.99
77537;BME280;67783;51.656;16.106;2023-02-12T06:26:00;103648.20;;;9.29;70.21
77537;BME280;67783;51.656;16.106;2023-02-12T06:29:01;103657.13;;;9.28;70.47
77537;BME280;67783;51.656;16.106;2023-02-12T06:32:04;103664.24;;;9.31;70.10
77537;BME280;67783;51.656;16.106;2023-02-12T06:35:08;103675.85;;;9.30;70.18
77537;BME280;67783;51.656;16.106;2023-02-12T06:38:18;103675.85;;;9.30;70.58
77537;BME280;67783;51.656;16.106;2023-02-12T06:41:21;103672.28;;;9.31;70.05
77537;BME280;67783;51.656;16.106;2023-02-12T06:44:23;103675.83;;;9.31;70.20
77537;BME280;67783;51.656;16.106;2023-02-12T06:47:26;103685.57;;;9.35;69.94
77537;BME280;67783;51.656;16.106;2023-02-12T06:50:28;103689.15;;;9.34;70.01
77537;BME280;67783;51.656;16.106;2023-02-12T06:53:39;103697.17;;;9.36;70.35
77537;BME280;67783;51.656;16.106;2023-02-12T06:56:42;103698.00;;;9.38;69.91
77537;BME280;67783;51.656;16.106;2023-02-12T06:59:44;103697.11;;;9.37;70.07
77537;BME280;67783;51.656;16.106;2023-02-12T07:02:51;103703.28;;;9.41;69.84
77537;BME280;67783;51.656;16.106;2023-02-12T07:05:53;103698.80;;;9.41;69.88
77537;BME280;67783;51.656;16.106;2023-02-12T07:09:00;103705.03;;;9.43;70.18
77537;BME280;67783;51.656;16.106;2023-02-12T07:12:03;103704.97;;;9.46;69.79
77537;BME280;67783;51.656;16.106;2023-02-12T07:15:05;103689.15;;;9.34;69.86
77537;BME280;67783;51.656;16.106;2023-02-12T07:18:07;103715.58;;;9.51;69.65
77537;BME280;67783;51.656;16.106;2023-02-12T07:21:11;103728.97;;;9.51;69.77
77537;BME280;67783;51.656;16.106;2023-02-12T07:24:20;103732.48;;;9.53;70.09
77537;BME280;67783;51.656;16.106;2023-02-12T07:27:22;103736.01;;;9.56;69.65
77537;BME280;67783;51.656;16.106;2023-02-12T07:30:24;103731.49;;;9.58;69.79
77537;BME280;67783;51.656;16.106;2023-02-12T07:33:26;103737.67;;;9.62;69.59
77537;BME280;67783;51.656;16.106;2023-02-12T07:36:30;103733.13;;;9.65;69.65
77537;BME280;67783;51.656;16.106;2023-02-12T07:39:41;103737.48;;;9.71;69.81
77537;BME280;67783;51.656;16.106;2023-02-12T07:42:43;103738.22;;;9.78;69.42
77537;BME280;67783;51.656;16.106;2023-02-12T07:45:45;103740.80;;;9.82;69.47
77537;BME280;67783;51.656;16.106;2023-02-12T07:48:47;103733.58;;;9.86;69.27
77537;BME280;67783;51.656;16.106;2023-02-12T07:51:49;103738.89;;;9.89;69.32
77537;BME280;67783;51.656;16.106;2023-02-12T07:54:51;103748.59;;;9.94;69.17
77537;BME280;67783;51.656;16.106;2023-02-12T07:57:53;103751.22;;;9.97;69.15
77537;BME280;67783;51.656;16.106;2023-02-12T08:00:58;103744.07;;;9.98;69.30
77537;BME280;67783;51.656;16.106;2023-02-12T08:07:09;103754.53;;;10.08;68.98
77537;BME280;67783;51.656;16.106;2023-02-12T08:10:11;103766.91;;;10.15;68.89
77537;BME280;67783;51.656;16.106;2023-02-12T08:13:13;103766.78;;;10.22;68.84
77537;BME280;67783;51.656;16.106;2023-02-12T08:16:20;103765.80;;;10.26;68.66
77537;BME280;67783;51.656;16.106;2023-02-12T08:19:23;103773.67;;;10.33;68.61
77537;BME280;67783;51.656;16.106;2023-02-12T08:22:25;103778.92;;;10.38;68.48
77537;BME280;67783;51.656;16.106;2023-02-12T08:25:26;103785.09;;;10.41;68.37
77537;BME280;67783;51.656;16.106;2023-02-12T08:28:28;103780.53;;;10.45;68.28
77537;BME280;67783;51.656;16.106;2023-02-12T08:31:41;103784.00;;;10.50;67.60
77537;BME280;67783;51.656;16.106;2023-02-12T08:34:44;103791.84;;;10.59;68.01
77537;BME280;67783;51.656;16.106;2023-02-12T08:37:45;103794.35;;;10.65;67.64
77537;BME280;67783;51.656;16.106;2023-02-12T08:40:47;103794.23;;;10.71;67.75
77537;BME280;67783;51.656;16.106;2023-02-12T08:43:51;103796.80;;;10.76;67.60
77537;BME280;67783;51.656;16.106;2023-02-12T08:46:59;103790.45;;;10.80;66.53
77537;BME280;67783;51.656;16.106;2023-02-12T08:50:01;103802.76;;;10.88;67.37
77537;BME280;67783;51.656;16.106;2023-02-12T08:53:04;103799.13;;;10.89;66.89
77537;BME280;67783;51.656;16.106;2023-02-12T08:56:08;103807.12;;;10.92;67.11
77537;BME280;67783;51.656;16.106;2023-02-12T08:59:12;103802.66;;;10.91;66.97
77537;BME280;67783;51.656;16.106;2023-02-12T09:02:20;103799.96;;;10.93;66.05
77537;BME280;67783;51.656;16.106;2023-02-12T09:05:22;103803.43;;;10.96;66.86
77537;BME280;67783;51.656;16.106;2023-02-12T09:08:24;103798.98;;;10.95;66.45
77537;BME280;67783;51.656;16.106;2023-02-12T09:11:27;103799.78;;;10.99;66.71
77537;BME280;67783;51.656;16.106;2023-02-12T09:14:32;103799.76;;;11.00;66.48
77537;BME280;67783;51.656;16.106;2023-02-12T09:17:41;103802.44;;;11.00;65.55
77537;BME280;67783;51.656;16.106;2023-02-12T09:20:44;103805.04;;;11.03;66.52
77537;BME280;67783;51.656;16.106;2023-02-12T09:23:46;103808.69;;;11.01;66.09
77537;BME280;67783;51.656;16.106;2023-02-12T09:26:48;103813.07;;;11.05;66.38
77537;BME280;67783;51.656;16.106;2023-02-12T09:29:51;103817.45;;;11.07;66.20
77537;BME280;67783;51.656;16.106;2023-02-12T09:33:02;103833.55;;;11.09;64.97
77537;BME280;67783;51.656;16.106;2023-02-12T09:36:10;103825.50;;;11.09;66.50
77537;BME280;67783;51.656;16.106;2023-02-12T09:39:12;103836.12;;;11.14;65.84
77537;BME280;67783;51.656;16.106;2023-02-12T09:42:27;103840.43;;;11.19;66.03
77537;BME280;67783;51.656;16.106;2023-02-12T09:45:37;103844.02;;;11.18;65.63
77537;BME280;67783;51.656;16.106;2023-02-12T09:48:52;103839.54;;;11.19;65.30
77537;BME280;67783;51.656;16.106;2023-02-12T09:51:54;103843.88;;;11.24;65.75
77537;BME280;67783;51.656;16.106;2023-02-12T09:54:57;103835.92;;;11.21;65.41
77537;BME280;67783;51.656;16.106;2023-02-12T09:58:06;103836.85;;;11.19;64.11
77537;BME280;67783;51.656;16.106;2023-02-12T10:01:16;103837.72;;;11.21;65.48
77537;BME280;67783;51.656;16.106;2023-02-12T10:04:19;103842.20;;;11.20;65.31
77537;BME280;67783;51.656;16.106;2023-02-12T10:07:44;103837.72;;;11.21;64.43
77537;BME280;67783;51.656;16.106;2023-02-12T10:10:50;103839.41;;;11.25;65.60
77537;BME280;67783;51.656;16.106;2023-02-12T10:14:02;103830.45;;;11.24;65.64
77537;BME280;67783;51.656;16.106;2023-02-12T10:23:47;103837.63;;;11.24;65.58
77537;BME280;67783;51.656;16.106;2023-02-12T10:26:49;103833.24;;;11.21;65.36
77537;BME280;67783;51.656;16.106;2023-02-12T10:29:54;103841.23;;;11.23;65.63
77537;BME280;67783;51.656;16.106;2023-02-12T10:33:11;103832.25;;;11.24;65.53
77537;BME280;67783;51.656;16.106;2023-02-12T10:36:24;103837.63;;;11.24;64.94
77537;BME280;67783;51.656;16.106;2023-02-12T10:39:28;103847.44;;;11.26;65.46
77537;BME280;67783;51.656;16.106;2023-02-12T10:42:39;103843.05;;;11.22;65.47
77537;BME280;67783;51.656;16.106;2023-02-12T10:45:43;103846.68;;;11.20;65.16
77537;BME280;67783;51.656;16.106;2023-02-12T10:48:48;103848.46;;;11.21;65.48
77537;BME280;67783;51.656;16.106;2023-02-12T10:58:22;103844.18;;;11.14;65.52
77537;BME280;67783;51.656;16.106;2023-02-12T11:01:33;103835.23;;;11.13;65.51
77537;BME280;67783;51.656;16.106;2023-02-12T11:04:35;103831.55;;;11.17;65.00
77537;BME280;67783;51.656;16.106;2023-02-12T11:07:46;103830.45;;;11.24;65.37
77537;BME280;67783;51.656;16.106;2023-02-12T11:10:48;103830.34;;;11.29;65.05
77537;BME280;67783;51.656;16.106;2023-02-12T11:17:29;103828.43;;;11.34;64.98
77537;BME280;67783;51.656;16.106;2023-02-12T11:23:42;103828.21;;;11.41;64.41
77537;BME280;67783;51.656;16.106;2023-02-12T11:26:46;103823.55;;;11.48;64.61
77537;BME280;67783;51.656;16.106;2023-02-12T11:36:22;103833.27;;;11.52;64.39
77537;BME280;67783;51.656;16.106;2023-02-12T11:42:36;103821.98;;;11.39;63.22
77537;BME280;67783;51.656;16.106;2023-02-12T11:45:48;103821.19;;;11.36;64.25
77537;BME280;67783;51.656;16.106;2023-02-12T11:48:54;103804.60;;;11.20;64.14
77537;BME280;67783;51.656;16.106;2023-02-12T11:52:00;103823.11;;;11.31;63.02
77537;BME280;67783;51.656;16.106;2023-02-12T11:55:10;103815.91;;;11.33;64.12
77537;BME280;67783;51.656;16.106;2023-02-12T11:58:19;103817.67;;;11.34;63.96
77537;BME280;67783;51.656;16.106;2023-02-12T12:01:29;103826.56;;;11.36;62.54
77537;BME280;67783;51.656;16.106;2023-02-12T12:04:36;103819.31;;;11.39;63.89
77537;BME280;67783;51.656;16.106;2023-02-12T12:07:52;103820.09;;;11.43;63.84
77537;BME280;67783;51.656;16.106;2023-02-12T12:10:57;103822.63;;;11.49;62.71
77537;BME280;67783;51.656;16.106;2023-02-12T12:14:08;103819.83;;;11.53;63.63
77537;BME280;67783;51.656;16.106;2023-02-12T12:17:15;103817.93;;;11.57;63.64
77537;BME280;67783;51.656;16.106;2023-02-12T12:20:38;103817.77;;;11.63;63.22
77537;BME280;67783;51.656;16.106;2023-02-12T12:23:56;103803.34;;;11.67;62.06
77537;BME280;67783;51.656;16.106;2023-02-12T12:33:45;103797.39;;;11.88;62.29
77537;BME280;67783;51.656;16.106;2023-02-12T12:40:12;103797.09;;;11.97;62.82
77537;BME280;67783;51.656;16.106;2023-02-12T12:46:39;103783.64;;;11.97;62.69
77537;BME280;67783;51.656;16.106;2023-02-12T12:49:47;103778.47;;;11.91;62.32
77537;BME280;67783;51.656;16.106;2023-02-12T13:09:21;103771.41;;;11.87;62.18
77537;BME280;67783;51.656;16.106;2023-02-12T13:22:23;103771.16;;;11.96;61.55
77537;BME280;67783;51.656;16.106;2023-02-12T13:28:51;103772.11;;;11.94;60.69
77537;BME280;67783;51.656;16.106;2023-02-12T13:35:24;103772.33;;;11.86;61.38
77537;BME280;67783;51.656;16.106;2023-02-12T13:38:34;103769.81;;;11.80;61.12
77537;BME280;67783;51.656;16.106;2023-02-12T13:41:39;103769.21;;;11.69;60.11
77537;BME280;67783;51.656;16.106;2023-02-12T13:44:55;103779.21;;;11.64;61.55
77537;BME280;67783;51.656;16.106;2023-02-12T13:48:11;103771.35;;;11.58;61.31
77537;BME280;67783;51.656;16.106;2023-02-12T13:57:35;103779.65;;;11.49;61.50
77537;BME280;67783;51.656;16.106;2023-02-12T14:03:53;103776.93;;;11.50;61.40
77537;BME280;67783;51.656;16.106;2023-02-12T14:07:05;103777.88;;;11.48;60.95
77537;BME280;67783;51.656;16.106;2023-02-12T14:13:22;103790.64;;;11.40;60.96
77537;BME280;67783;51.656;16.106;2023-02-12T14:16:36;103788.13;;;11.34;60.83
77537;BME280;67783;51.656;16.106;2023-02-12T14:23:02;103782.77;;;11.34;61.19
77537;BME280;67783;51.656;16.106;2023-02-12T14:29:18;103781.30;;;11.22;61.06
77537;BME280;67783;51.656;16.106;2023-02-12T14:35:43;103783.24;;;11.16;61.55
77537;BME280;67783;51.656;16.106;2023-02-12T14:45:26;103771.00;;;11.05;61.44
77537;BME280;67783;51.656;16.106;2023-02-12T14:54:59;103777.65;;;10.89;61.16
77537;BME280;67783;51.656;16.106;2023-02-12T14:58:05;103753.09;;;10.71;60.55
77537;BME280;67783;51.656;16.106;2023-02-12T15:01:12;103775.11;;;10.85;61.40
77537;BME280;67783;51.656;16.106;2023-02-12T15:04:21;103779.64;;;10.81;61.29
77537;BME280;67783;51.656;16.106;2023-02-12T15:07:39;103769.86;;;10.80;60.48
77537;BME280;67783;51.656;16.106;2023-02-12T15:13:59;103776.05;;;10.82;61.36
77537;BME280;67783;51.656;16.106;2023-02-12T15:17:12;103768.08;;;10.79;60.93
77537;BME280;67783;51.656;16.106;2023-02-12T15:20:23;103768.05;;;10.81;61.48
77537;BME280;67783;51.656;16.106;2023-02-12T15:23:35;103768.97;;;10.80;61.38
77537;BME280;67783;51.656;16.106;2023-02-12T15:26:51;103768.16;;;10.76;61.06
77537;BME280;67783;51.656;16.106;2023-02-12T15:29:51;103777.05;;;10.78;61.49
77537;BME280;67783;51.656;16.106;2023-02-12T15:32:55;103783.33;;;10.77;61.41
77537;BME280;67783;51.656;16.106;2023-02-12T15:36:00;103736.68;;;10.47;60.53
77537;BME280;67783;51.656;16.106;2023-02-12T15:39:05;103786.95;;;10.76;61.35
77537;BME280;67783;51.656;16.106;2023-02-12T15:45:30;103792.45;;;10.70;60.75
77537;BME280;67783;51.656;16.106;2023-02-12T15:48:34;103788.00;;;10.69;61.56
77537;BME280;67783;51.656;16.106;2023-02-12T15:51:39;103782.69;;;10.68;61.44
77537;BME280;67783;51.656;16.106;2023-02-12T15:54:51;103779.23;;;10.62;60.93
77537;BME280;67783;51.656;16.106;2023-02-12T15:57:59;103785.50;;;10.61;61.64
77537;BME280;67783;51.656;16.106;2023-02-12T16:01:04;103787.38;;;10.58;61.58
77537;BME280;67783;51.656;16.106;2023-02-12T16:04:18;103790.98;;;10.57;61.15
77537;BME280;67783;51.656;16.106;2023-02-12T16:07:21;103785.90;;;10.45;61.72
77537;BME280;67783;51.656;16.106;2023-02-12T16:10:24;103806.18;;;10.56;61.67
77537;BME280;67783;51.656;16.106;2023-02-12T16:13:33;103807.07;;;10.57;61.79
77537;BME280;67783;51.656;16.106;2023-02-12T16:16:45;103801.78;;;10.54;61.85
77537;BME280;67783;51.656;16.106;2023-02-12T16:19:59;103809.05;;;10.49;61.89
77537;BME280;67783;51.656;16.106;2023-02-12T16:23:05;103806.38;;;10.49;62.04
77537;BME280;67783;51.656;16.106;2023-02-12T16:26:13;103809.11;;;10.47;62.06
77537;BME280;67783;51.656;16.106;2023-02-12T16:29:16;103787.95;;;10.34;61.92
77537;BME280;67783;51.656;16.106;2023-02-12T16:35:34;103818.14;;;10.43;62.15
77537;BME280;67783;51.656;16.106;2023-02-12T16:38:45;103809.25;;;10.40;61.95
77537;BME280;67783;51.656;16.106;2023-02-12T16:41:53;103821.75;;;10.41;62.20
77537;BME280;67783;51.656;16.106;2023-02-12T16:44:56;103819.13;;;10.39;62.21
77537;BME280;67783;51.656;16.106;2023-02-12T16:51:24;103825.41;;;10.38;62.31
77537;BME280;67783;51.656;16.106;2023-02-12T16:54:33;103825.52;;;10.32;62.35
77537;BME280;67783;51.656;16.106;2023-02-12T16:57:35;103831.92;;;10.27;62.46
77537;BME280;67783;51.656;16.106;2023-02-12T17:00:37;103827.39;;;10.29;62.46
77537;BME280;67783;51.656;16.106;2023-02-12T17:03:40;103827.39;;;10.29;62.51
77537;BME280;67783;51.656;16.106;2023-02-12T17:06:44;103829.99;;;10.32;62.48
77537;BME280;67783;51.656;16.106;2023-02-12T17:09:46;103825.63;;;10.28;62.57
77537;BME280;67783;51.656;16.106;2023-02-12T17:12:53;103832.83;;;10.26;62.65
77537;BME280;67783;51.656;16.106;2023-02-12T17:15:57;103834.59;;;10.27;62.63
77537;BME280;67783;51.656;16.106;2023-02-12T17:19:01;103835.53;;;10.24;62.71
77537;BME280;67783;51.656;16.106;2023-02-12T17:22:04;103831.94;;;10.25;62.68
77537;BME280;67783;51.656;16.106;2023-02-12T17:25:09;103838.27;;;10.23;62.79
77537;BME280;67783;51.656;16.106;2023-02-12T17:28:14;103836.57;;;10.18;62.96
77537;BME280;67783;51.656;16.106;2023-02-12T17:31:16;103848.22;;;10.16;62.91
77537;BME280;67783;51.656;16.106;2023-02-12T17:34:21;103850.95;;;10.11;63.36
77537;BME280;67783;51.656;16.106;2023-02-12T17:37:23;103844.77;;;10.08;63.33
77537;BME280;67783;51.656;16.106;2023-02-12T17:40:26;103852.02;;;10.04;63.65
77537;BME280;67783;51.656;16.106;2023-02-12T17:43:34;103843.99;;;10.03;64.55
77537;BME280;67783;51.656;16.106;2023-02-12T17:46:36;103842.34;;;9.97;63.80
77537;BME280;67783;51.656;16.106;2023-02-12T17:49:38;103839.70;;;9.94;64.35
77537;BME280;67783;51.656;16.106;2023-02-12T17:52:42;103844.21;;;9.92;63.97
77537;BME280;67783;51.656;16.106;2023-02-12T17:55:44;103837.15;;;9.88;64.29
77537;BME280;67783;51.656;16.106;2023-02-12T17:58:55;103845.29;;;9.84;65.54
77537;BME280;67783;51.656;16.106;2023-02-12T18:01:57;103840.84;;;9.83;64.40
77537;BME280;67783;51.656;16.106;2023-02-12T18:05:00;103840.02;;;9.78;65.05
77537;BME280;67783;51.656;16.106;2023-02-12T18:08:02;103843.59;;;9.78;64.59
77537;BME280;67783;51.656;16.106;2023-02-12T18:11:06;103837.41;;;9.76;64.89
77537;BME280;67783;51.656;16.106;2023-02-12T18:14:16;103842.76;;;9.76;65.86
77537;BME280;67783;51.656;16.106;2023-02-12T18:17:17;103844.53;;;9.77;64.81
77537;BME280;67783;51.656;16.106;2023-02-12T18:20:20;103846.33;;;9.77;65.34
77537;BME280;67783;51.656;16.106;2023-02-12T18:23:22;103850.72;;;9.79;64.85
77537;BME280;67783;51.656;16.106;2023-02-12T18:26:24;103850.72;;;9.79;65.12
77537;BME280;67783;51.656;16.106;2023-02-12T18:29:37;103859.67;;;9.78;65.83
77537;BME280;67783;51.656;16.106;2023-02-12T18:32:39;103853.41;;;9.79;64.96
77537;BME280;67783;51.656;16.106;2023-02-12T18:35:40;103853.42;;;9.78;65.41
77537;BME280;67783;51.656;16.106;2023-02-12T18:38:44;103843.57;;;9.81;64.93
77537;BME280;67783;51.656;16.106;2023-02-12T18:41:47;103848.94;;;9.80;65.12
77537;BME280;67783;51.656;16.106;2023-02-12T18:44:57;103847.14;;;9.80;65.64
77537;BME280;67783;51.656;16.106;2023-02-12T18:47:59;103845.38;;;9.78;65.05
77537;BME280;67783;51.656;16.106;2023-02-12T18:51:02;103851.77;;;9.72;65.49
77537;BME280;67783;51.656;16.106;2023-02-12T18:54:09;103855.34;;;9.71;65.12
77537;BME280;67783;51.656;16.106;2023-02-12T18:57:11;103850.09;;;9.65;65.37
77537;BME280;67783;51.656;16.106;2023-02-12T19:00:18;103856.42;;;9.61;66.28
77537;BME280;67783;51.656;16.106;2023-02-12T19:03:21;103859.11;;;9.61;65.35
77537;BME280;67783;51.656;16.106;2023-02-12T19:06:23;103852.02;;;9.57;65.84